Benge, WA

2:23 PM PDT on August 21, 2014 (GMT -0700)
Pullman-Moscow Regional | Change Station
CLOSE
Current Station
Airport
Location: Pullman,
Elevation: 2552 ft
Nearby Weather Stations

Elev 2552 ft 46.74 °N, 117.12 °W | Updated 30 minutes ago

Clear
Clear
76 °F
Feels Like 76 °F
N
6
Wind Variable Wind from North

Today
High -- | Low -- °F
--% Chance of Precip.
Yesterday
High -- | Low -- °F
Precip. -- in
5:57 AM 7:51 PM
Waning Crescent, 12% visible
Pressure 29.95 in
Visibility 10.0 miles
Clouds Clear
Dew Point 42 °F
Humidity 30%
Rainfall 0.00 in
Snow Depth Not available.
UV 8 out of 12
Pollen 5.60 out of 12
Air Quality Not available.
Flu Activity Not available.
METAR KPUW 212053Z AUTO 35005KT 10SM CLR 24/06 A2998 RMK AO2 SLP142 T02440056 56013

More Conditions Fewer Conditions

Pressure 29.95 in
Visibility 10.0 miles
Clouds Clear
Dew Point 42 °F
Humidity 30%
Rainfall 0.00 in
Snow Depth Not available.
UV 8 out of 12
Pollen 5.60 out of 12
Air Quality Not available.
Flu Activity Not available.
METAR KPUW 212053Z AUTO 35005KT 10SM CLR 24/06 A2998 RMK AO2 SLP142 T02440056 56013

More Conditions Fewer Conditions

10-Day Weather Forecast

Almanac

Astronomy

Aug. 21, 2014 Rise Set
Actual Time 5:57 AM PDT 7:51 PM PDT
Civil Twilight 5:24 AM PDT 8:24 PM PDT
Nautical Twilight 4:44 AM PDT 9:04 PM PDT
Astronomical Twilight 4:00 AM PDT 9:47 PM PDT
Moon 2:25 AM PDT 5:29 PM PDT
Length of Visible Light 14h 59m
Length of Day
13h 54m
Tomorrow will be 3m 6s shorter.
Waning Crescent, 12% of the Moon is Illuminated
Today
Waning Crescent
Aug 25
New
Sep 2
First Quarter
Sep 8
Full
Sep 15
Last Quarter

Today's Extremes

State Highs State Lows

Community

WunderPhotos

Upload Photos

1,746,021 photos uploaded!

WunderBlogs® & News

Nearby

Snow Depth

Station Depth Elevation
Sourdough Gulch 1 in 4000 ft
Quartz Peak 0 in 4700 ft
Moses Mountain 1 in 5300 ft
Grouse Camp 0 in 5380 ft
Sentinel Butte 0 in 4920 ft

Earthquake Activity

City Distance Mag. Time & Date
No recent earthquake activity has been reported nearby.
Minimum magnitude displayed is 2.5.

Coastal Water Temperatures

Place Temperature
No Stations Reporting

Nearby Weather Stations